createdAt,value
2022-10-08T00:06:22.870Z,0.00
2022-10-08T00:17:24.667Z,4.86
2022-10-08T00:21:06.272Z,2.64
2022-10-08T00:24:47.881Z,1.96
2022-10-08T00:28:29.621Z,3.44
2022-10-08T00:32:11.099Z,4.44
2022-10-08T00:35:52.762Z,2.82
2022-10-08T00:39:34.361Z,3.10
2022-10-08T00:46:56.071Z,2.87
2022-10-08T00:54:17.832Z,3.33
2022-10-08T01:05:19.566Z,0.00
2022-10-08T01:09:01.162Z,2.96
2022-10-08T01:16:22.911Z,3.17
2022-10-08T01:27:24.576Z,0.00
2022-10-08T01:38:26.333Z,0.00
2022-10-08T01:49:28.043Z,0.00
2022-10-08T01:53:09.620Z,1.70
2022-10-08T01:56:51.228Z,2.19
2022-10-08T02:07:52.950Z,0.00
2022-10-08T02:11:34.533Z,3.35
2022-10-08T02:15:16.154Z,1.83
2022-10-08T02:26:17.927Z,2.99
2022-10-08T02:29:59.525Z,2.70
2022-10-08T02:37:21.654Z,2.40
2022-10-08T02:48:23.387Z,0.00
2022-10-08T02:59:25.167Z,0.00
2022-10-08T03:10:26.869Z,0.00
2022-10-08T03:21:28.623Z,0.00
2022-10-08T03:25:10.216Z,2.96
2022-10-08T03:28:51.809Z,1.90
2022-10-08T03:32:33.432Z,3.03
2022-10-08T03:36:15.026Z,2.48
2022-10-08T03:39:56.650Z,4.54
2022-10-08T03:43:38.180Z,2.48
2022-10-08T03:47:19.808Z,4.26
2022-10-08T03:51:01.421Z,2.84
2022-10-08T03:54:43.022Z,2.67
2022-10-08T03:58:24.759Z,3.43
2022-10-08T04:02:06.572Z,4.40
2022-10-08T04:09:28.118Z,3.25
2022-10-08T04:13:09.833Z,3.25
2022-10-08T04:20:31.576Z,3.64
2022-10-08T04:24:13.193Z,4.55
2022-10-08T04:27:54.791Z,2.67
2022-10-08T04:35:16.462Z,2.92
2022-10-08T04:38:58.122Z,3.16
2022-10-08T04:42:39.731Z,3.06
2022-10-08T04:46:21.482Z,3.65
2022-10-08T04:50:02.971Z,2.86
2022-10-08T04:57:24.648Z,1.90
2022-10-08T05:08:26.358Z,0.00
2022-10-08T05:12:07.985Z,2.37
2022-10-08T05:15:49.656Z,2.36
2022-10-08T05:19:31.220Z,3.63
2022-10-08T05:26:58.606Z,2.42
2022-10-08T05:37:54.680Z,2.48
2022-10-08T05:45:16.342Z,3.09
2022-10-08T05:52:38.008Z,2.22
2022-10-08T05:56:19.660Z,3.63
2022-10-08T06:00:01.328Z,3.01
2022-10-08T06:11:03.063Z,0.00
2022-10-08T06:22:04.853Z,2.33
2022-10-08T06:25:46.405Z,2.09
2022-10-08T06:29:27.974Z,1.70
2022-10-08T06:40:29.944Z,3.78
2022-10-08T06:44:11.541Z,4.29
2022-10-08T06:47:53.187Z,5.20
2022-10-08T06:51:34.827Z,3.13
2022-10-08T06:55:16.723Z,5.09
2022-10-08T06:58:58.393Z,3.76
2022-10-08T07:02:39.967Z,1.70
2022-10-08T07:13:41.678Z,0.00
2022-10-08T07:17:23.331Z,3.33
2022-10-08T07:28:25.189Z,3.15
2022-10-08T07:39:26.854Z,0.00
2022-10-08T07:43:08.490Z,3.12
2022-10-08T07:46:50.178Z,2.58
2022-10-08T07:57:51.939Z,0.00
2022-10-08T08:08:53.677Z,0.00
2022-10-08T08:19:55.429Z,0.00
2022-10-08T08:27:17.063Z,1.96
2022-10-08T08:38:18.828Z,0.00
2022-10-08T08:49:20.608Z,2.70
2022-10-08T08:53:02.167Z,1.90
2022-10-08T09:04:04.060Z,0.00
2022-10-08T09:15:05.713Z,0.00
2022-10-08T09:26:07.502Z,0.00
2022-10-08T09:37:09.232Z,0.00
2022-10-08T09:48:11.009Z,0.00
2022-10-08T09:59:12.752Z,0.00
2022-10-08T10:10:14.526Z,0.00
2022-10-08T10:21:16.300Z,0.00
2022-10-08T10:32:21.079Z,0.00
2022-10-08T10:43:19.796Z,0.00
2022-10-08T10:54:21.588Z,0.00
2022-10-08T11:05:23.308Z,0.00
2022-10-08T11:16:25.067Z,0.00
2022-10-08T11:27:26.773Z,0.00
2022-10-08T11:38:28.716Z,0.00
2022-10-08T11:49:30.318Z,0.00
2022-10-08T12:00:32.113Z,0.00
2022-10-08T12:11:33.837Z,0.00
2022-10-08T12:22:35.600Z,0.00
2022-10-08T12:33:37.328Z,0.00
2022-10-08T12:44:39.112Z,0.00
2022-10-08T12:55:40.889Z,0.00
2022-10-08T13:06:42.650Z,1.70
2022-10-08T13:17:44.383Z,0.00
2022-10-08T13:28:59.920Z,0.00
2022-10-08T13:32:27.747Z,2.19
2022-10-08T13:43:29.513Z,0.00
2022-10-08T13:54:31.283Z,0.00
2022-10-08T14:05:32.992Z,0.00
2022-10-08T14:16:34.840Z,0.00
2022-10-08T14:27:36.484Z,0.00
2022-10-08T14:38:38.254Z,0.00
2022-10-08T14:49:39.979Z,0.00
2022-10-08T15:00:41.763Z,0.00
2022-10-08T15:11:43.515Z,0.00
2022-10-08T15:22:45.533Z,0.00
2022-10-08T15:33:46.997Z,0.00
2022-10-08T15:44:48.778Z,0.00
2022-10-08T15:55:50.512Z,0.00
2022-10-08T16:06:52.289Z,0.00
2022-10-08T16:17:53.993Z,0.00
2022-10-08T16:28:55.765Z,0.00
2022-10-08T16:39:57.492Z,0.00
2022-10-08T16:50:59.249Z,0.00
2022-10-08T17:02:01.125Z,0.00
2022-10-08T17:13:02.806Z,0.00
2022-10-08T17:24:04.700Z,0.00
2022-10-08T17:35:06.514Z,0.00
2022-10-08T17:46:08.374Z,0.00
2022-10-08T17:57:10.305Z,0.00
2022-10-08T18:08:12.130Z,0.00
2022-10-08T18:19:13.926Z,0.00
2022-10-08T18:30:15.741Z,0.00
2022-10-08T18:41:17.701Z,0.00
2022-10-08T18:52:21.651Z,0.00
2022-10-08T19:03:21.025Z,0.00
2022-10-08T19:14:22.885Z,0.00
2022-10-08T19:25:24.862Z,0.00
2022-10-08T19:36:26.821Z,0.00
2022-10-08T19:47:28.843Z,0.00
2022-10-08T19:58:30.830Z,0.00
2022-10-08T20:09:32.681Z,0.00
2022-10-08T20:20:34.409Z,0.00
2022-10-08T20:31:36.286Z,0.00
2022-10-08T20:42:37.904Z,0.00
2022-10-08T20:53:39.680Z,0.00
2022-10-08T21:04:41.394Z,0.00
2022-10-08T21:15:43.170Z,0.00
2022-10-08T21:27:14.951Z,0.00
2022-10-08T21:38:16.738Z,0.00
2022-10-08T21:49:18.469Z,0.00
2022-10-08T22:00:20.225Z,0.00
2022-10-08T22:11:21.950Z,0.00
2022-10-08T22:22:23.729Z,0.00
2022-10-08T22:33:25.449Z,0.00
2022-10-08T22:44:27.243Z,0.00
2022-10-08T22:55:28.956Z,0.00
2022-10-08T23:06:30.744Z,0.00
2022-10-08T23:17:32.460Z,0.00
2022-10-08T23:28:34.354Z,0.00
2022-10-08T23:39:35.974Z,0.00
2022-10-08T23:50:37.758Z,0.00
